sensor_id;sensor_type;location;lat;lon;timestamp;temperature;humidity
9768;DHT22;4923;52.520;13.494;2023-02-26T00:02:14;0.00;1.00
9768;DHT22;4923;52.520;13.494;2023-02-26T00:05:01;0.00;1.00
9768;DHT22;4923;52.520;13.494;2023-02-26T00:07:48;0.10;1.00
9768;DHT22;4923;52.520;13.494;2023-02-26T00:10:35;0.10;1.00
9768;DHT22;4923;52.520;13.494;2023-02-26T00:13:24;0.10;1.00
9768;DHT22;4923;52.520;13.494;2023-02-26T00:16:20;0.10;1.00
9768;DHT22;4923;52.520;13.494;2023-02-26T00:19:10;0.20;1.00
9768;DHT22;4923;52.520;13.494;2023-02-26T00:21:58;0.20;1.00
9768;DHT22;4923;52.520;13.494;2023-02-26T00:24:45;0.20;1.00
9768;DHT22;4923;52.520;13.494;2023-02-26T00:27:31;0.20;1.00
9768;DHT22;4923;52.520;13.494;2023-02-26T00:30:20;0.20;1.00
9768;DHT22;4923;52.520;13.494;2023-02-26T00:33:08;0.20;1.00
9768;DHT22;4923;52.520;13.494;2023-02-26T00:35:58;0.20;1.00
9768;DHT22;4923;52.520;13.494;2023-02-26T00:38:56;0.20;1.00
9768;DHT22;4923;52.520;13.494;2023-02-26T00:41:47;0.20;1.00
9768;DHT22;4923;52.520;13.494;2023-02-26T00:44:35;0.20;1.00
9768;DHT22;4923;52.520;13.494;2023-02-26T00:47:30;0.20;1.00
9768;DHT22;4923;52.520;13.494;2023-02-26T00:50:20;0.20;1.00
9768;DHT22;4923;52.520;13.494;2023-02-26T00:53:13;0.20;1.00
9768;DHT22;4923;52.520;13.494;2023-02-26T00:56:03;0.20;1.00
9768;DHT22;4923;52.520;13.494;2023-02-26T00:58:50;0.20;1.00
9768;DHT22;4923;52.520;13.494;2023-02-26T01:01:37;0.20;1.00
9768;DHT22;4923;52.520;13.494;2023-02-26T01:04:26;0.30;1.00
9768;DHT22;4923;52.520;13.494;2023-02-26T01:07:13;0.30;1.00
9768;DHT22;4923;52.520;13.494;2023-02-26T01:10:01;0.30;1.00
9768;DHT22;4923;52.520;13.494;2023-02-26T01:12:48;0.30;1.00
9768;DHT22;4923;52.520;13.494;2023-02-26T01:15:36;0.30;1.00
9768;DHT22;4923;52.520;13.494;2023-02-26T01:18:26;0.30;1.00
9768;DHT22;4923;52.520;13.494;2023-02-26T01:21:19;0.40;1.00
9768;DHT22;4923;52.520;13.494;2023-02-26T01:24:12;0.40;1.00
9768;DHT22;4923;52.520;13.494;2023-02-26T01:27:00;0.40;1.00
9768;DHT22;4923;52.520;13.494;2023-02-26T01:29:48;0.40;1.00
9768;DHT22;4923;52.520;13.494;2023-02-26T01:32:42;0.50;1.00
9768;DHT22;4923;52.520;13.494;2023-02-26T01:35:40;0.40;1.00
9768;DHT22;4923;52.520;13.494;2023-02-26T01:38:34;0.50;1.00
9768;DHT22;4923;52.520;13.494;2023-02-26T01:41:29;0.40;1.00
9768;DHT22;4923;52.520;13.494;2023-02-26T01:44:24;0.40;1.00
9768;DHT22;4923;52.520;13.494;2023-02-26T01:47:17;0.40;1.00
9768;DHT22;4923;52.520;13.494;2023-02-26T01:50:11;0.40;1.00
9768;DHT22;4923;52.520;13.494;2023-02-26T01:53:20;0.50;1.00
9768;DHT22;4923;52.520;13.494;2023-02-26T01:56:12;0.40;1.00
9768;DHT22;4923;52.520;13.494;2023-02-26T01:59:02;0.50;1.00
9768;DHT22;4923;52.520;13.494;2023-02-26T02:01:53;0.40;1.00
9768;DHT22;4923;52.520;13.494;2023-02-26T02:04:40;0.50;1.00
9768;DHT22;4923;52.520;13.494;2023-02-26T02:07:29;0.50;1.00
9768;DHT22;4923;52.520;13.494;2023-02-26T02:10:16;0.50;1.00
9768;DHT22;4923;52.520;13.494;2023-02-26T02:13:14;0.50;1.00
9768;DHT22;4923;52.520;13.494;2023-02-26T02:16:15;0.60;1.00
9768;DHT22;4923;52.520;13.494;2023-02-26T02:19:19;0.60;1.00
9768;DHT22;4923;52.520;13.494;2023-02-26T02:22:32;0.60;1.00
9768;DHT22;4923;52.520;13.494;2023-02-26T02:25:39;0.60;1.00
9768;DHT22;4923;52.520;13.494;2023-02-26T02:28:44;0.60;1.00
9768;DHT22;4923;52.520;13.494;2023-02-26T02:31:40;0.60;1.00
9768;DHT22;4923;52.520;13.494;2023-02-26T02:34:32;0.60;1.00
9768;DHT22;4923;52.520;13.494;2023-02-26T02:37:26;0.60;1.00
9768;DHT22;4923;52.520;13.494;2023-02-26T02:40:18;0.60;1.00
9768;DHT22;4923;52.520;13.494;2023-02-26T02:43:09;0.60;1.00
9768;DHT22;4923;52.520;13.494;2023-02-26T02:46:00;0.60;1.00
9768;DHT22;4923;52.520;13.494;2023-02-26T02:48:53;0.60;1.00
9768;DHT22;4923;52.520;13.494;2023-02-26T02:51:46;0.60;1.00
9768;DHT22;4923;52.520;13.494;2023-02-26T02:54:40;0.50;1.00
9768;DHT22;4923;52.520;13.494;2023-02-26T02:57:33;0.60;1.00
9768;DHT22;4923;52.520;13.494;2023-02-26T03:00:23;0.60;1.00
9768;DHT22;4923;52.520;13.494;2023-02-26T03:03:15;0.50;1.00
9768;DHT22;4923;52.520;13.494;2023-02-26T03:06:05;0.50;1.00
9768;DHT22;4923;52.520;13.494;2023-02-26T03:08:52;0.50;1.00
9768;DHT22;4923;52.520;13.494;2023-02-26T03:11:39;0.50;1.00
9768;DHT22;4923;52.520;13.494;2023-02-26T03:14:27;0.50;1.00
9768;DHT22;4923;52.520;13.494;2023-02-26T03:17:22;0.50;1.00
9768;DHT22;4923;52.520;13.494;2023-02-26T03:20:20;0.50;1.00
9768;DHT22;4923;52.520;13.494;2023-02-26T03:23:15;0.50;1.00
9768;DHT22;4923;52.520;13.494;2023-02-26T03:26:09;0.50;1.00
9768;DHT22;4923;52.520;13.494;2023-02-26T03:29:02;0.50;1.00
9768;DHT22;4923;52.520;13.494;2023-02-26T03:31:54;0.40;1.00
9768;DHT22;4923;52.520;13.494;2023-02-26T03:34:46;0.40;1.00
9768;DHT22;4923;52.520;13.494;2023-02-26T03:37:36;0.40;1.00
9768;DHT22;4923;52.520;13.494;2023-02-26T03:40:28;0.40;1.00
9768;DHT22;4923;52.520;13.494;2023-02-26T03:43:19;0.40;1.00
9768;DHT22;4923;52.520;13.494;2023-02-26T03:46:11;0.40;1.00
9768;DHT22;4923;52.520;13.494;2023-02-26T03:49:05;0.40;1.00
9768;DHT22;4923;52.520;13.494;2023-02-26T03:51:54;0.50;1.00
9768;DHT22;4923;52.520;13.494;2023-02-26T03:57:48;0.40;1.00
9768;DHT22;4923;52.520;13.494;2023-02-26T04:00:38;0.40;1.00
9768;DHT22;4923;52.520;13.494;2023-02-26T04:03:31;0.40;1.00
9768;DHT22;4923;52.520;13.494;2023-02-26T04:06:19;0.50;1.00
9768;DHT22;4923;52.520;13.494;2023-02-26T04:09:07;0.50;1.00
9768;DHT22;4923;52.520;13.494;2023-02-26T04:11:55;0.50;1.00
9768;DHT22;4923;52.520;13.494;2023-02-26T04:14:45;0.50;1.00
9768;DHT22;4923;52.520;13.494;2023-02-26T04:17:31;0.50;1.00
9768;DHT22;4923;52.520;13.494;2023-02-26T04:20:19;0.60;1.00
9768;DHT22;4923;52.520;13.494;2023-02-26T04:23:06;0.50;1.00
9768;DHT22;4923;52.520;13.494;2023-02-26T04:25:52;0.60;1.00
9768;DHT22;4923;52.520;13.494;2023-02-26T04:28:39;0.50;1.00
9768;DHT22;4923;52.520;13.494;2023-02-26T04:31:27;0.50;1.00
9768;DHT22;4923;52.520;13.494;2023-02-26T04:34:14;0.50;1.00
9768;DHT22;4923;52.520;13.494;2023-02-26T04:37:01;0.60;1.00
9768;DHT22;4923;52.520;13.494;2023-02-26T04:39:49;0.50;1.00
9768;DHT22;4923;52.520;13.494;2023-02-26T04:42:36;0.60;1.00
9768;DHT22;4923;52.520;13.494;2023-02-26T04:45:22;0.60;1.00
9768;DHT22;4923;52.520;13.494;2023-02-26T04:48:11;0.60;1.00
9768;DHT22;4923;52.520;13.494;2023-02-26T04:50:58;0.60;1.00
9768;DHT22;4923;52.520;13.494;2023-02-26T04:53:44;0.60;1.00
9768;DHT22;4923;52.520;13.494;2023-02-26T04:56:31;0.60;1.00
9768;DHT22;4923;52.520;13.494;2023-02-26T04:59:18;0.60;1.00
9768;DHT22;4923;52.520;13.494;2023-02-26T05:02:05;0.60;1.00
9768;DHT22;4923;52.520;13.494;2023-02-26T05:04:53;0.60;1.00
9768;DHT22;4923;52.520;13.494;2023-02-26T05:07:40;0.70;1.00
9768;DHT22;4923;52.520;13.494;2023-02-26T05:10:27;0.60;1.00
9768;DHT22;4923;52.520;13.494;2023-02-26T05:13:14;0.60;1.00
9768;DHT22;4923;52.520;13.494;2023-02-26T05:16:01;0.60;1.00
9768;DHT22;4923;52.520;13.494;2023-02-26T05:18:48;0.70;1.00
9768;DHT22;4923;52.520;13.494;2023-02-26T05:21:36;0.70;1.00
9768;DHT22;4923;52.520;13.494;2023-02-26T05:24:22;0.60;1.00
9768;DHT22;4923;52.520;13.494;2023-02-26T05:27:09;0.60;1.00
9768;DHT22;4923;52.520;13.494;2023-02-26T05:29:56;0.60;1.00
9768;DHT22;4923;52.520;13.494;2023-02-26T05:32:44;0.70;1.00
9768;DHT22;4923;52.520;13.494;2023-02-26T05:35:30;0.70;1.00
9768;DHT22;4923;52.520;13.494;2023-02-26T05:38:19;0.60;1.00
9768;DHT22;4923;52.520;13.494;2023-02-26T05:41:06;0.60;1.00
9768;DHT22;4923;52.520;13.494;2023-02-26T05:43:52;0.70;1.00
9768;DHT22;4923;52.520;13.494;2023-02-26T05:46:39;0.70;1.00
9768;DHT22;4923;52.520;13.494;2023-02-26T05:49:26;0.60;1.00
9768;DHT22;4923;52.520;13.494;2023-02-26T05:52:13;0.70;1.00
9768;DHT22;4923;52.520;13.494;2023-02-26T05:55:02;0.70;1.00
9768;DHT22;4923;52.520;13.494;2023-02-26T05:57:49;0.70;1.00
9768;DHT22;4923;52.520;13.494;2023-02-26T06:00:36;0.70;1.00
9768;DHT22;4923;52.520;13.494;2023-02-26T06:03:23;0.60;1.00
9768;DHT22;4923;52.520;13.494;2023-02-26T06:06:09;0.70;1.00
9768;DHT22;4923;52.520;13.494;2023-02-26T06:08:56;0.70;1.00
9768;DHT22;4923;52.520;13.494;2023-02-26T06:11:46;0.70;1.00
9768;DHT22;4923;52.520;13.494;2023-02-26T06:14:33;0.70;1.00
9768;DHT22;4923;52.520;13.494;2023-02-26T06:17:20;0.70;1.00
9768;DHT22;4923;52.520;13.494;2023-02-26T06:20:08;0.70;1.00
9768;DHT22;4923;52.520;13.494;2023-02-26T06:22:55;0.70;1.00
9768;DHT22;4923;52.520;13.494;2023-02-26T06:25:42;0.70;1.00
9768;DHT22;4923;52.520;13.494;2023-02-26T06:28:31;0.80;1.00
9768;DHT22;4923;52.520;13.494;2023-02-26T06:31:18;0.70;1.00
9768;DHT22;4923;52.520;13.494;2023-02-26T06:34:05;0.80;1.00
9768;DHT22;4923;52.520;13.494;2023-02-26T06:36:52;0.70;1.00
9768;DHT22;4923;52.520;13.494;2023-02-26T06:39:38;0.80;1.00
9768;DHT22;4923;52.520;13.494;2023-02-26T06:42:25;0.80;1.00
9768;DHT22;4923;52.520;13.494;2023-02-26T06:45:14;0.80;1.00
9768;DHT22;4923;52.520;13.494;2023-02-26T06:48:00;0.80;1.00
9768;DHT22;4923;52.520;13.494;2023-02-26T06:50:47;0.90;1.00
9768;DHT22;4923;52.520;13.494;2023-02-26T06:53:34;0.90;1.00
9768;DHT22;4923;52.520;13.494;2023-02-26T06:56:21;0.90;1.00
9768;DHT22;4923;52.520;13.494;2023-02-26T06:59:08;0.90;1.00
9768;DHT22;4923;52.520;13.494;2023-02-26T07:01:56;0.90;1.00
9768;DHT22;4923;52.520;13.494;2023-02-26T07:04:43;1.00;1.00
9768;DHT22;4923;52.520;13.494;2023-02-26T07:07:30;1.10;1.00
9768;DHT22;4923;52.520;13.494;2023-02-26T07:10:18;1.20;1.00
9768;DHT22;4923;52.520;13.494;2023-02-26T07:13:06;1.20;1.00
9768;DHT22;4923;52.520;13.494;2023-02-26T07:15:53;1.20;1.00
9768;DHT22;4923;52.520;13.494;2023-02-26T07:18:41;1.40;1.00
9768;DHT22;4923;52.520;13.494;2023-02-26T07:21:28;1.30;1.00
9768;DHT22;4923;52.520;13.494;2023-02-26T07:24:15;1.30;1.00
9768;DHT22;4923;52.520;13.494;2023-02-26T07:27:01;1.40;1.00
9768;DHT22;4923;52.520;13.494;2023-02-26T07:29:48;1.30;1.00
9768;DHT22;4923;52.520;13.494;2023-02-26T07:32:35;1.30;1.00
9768;DHT22;4923;52.520;13.494;2023-02-26T07:35:23;1.20;1.00
9768;DHT22;4923;52.520;13.494;2023-02-26T07:38:10;1.10;1.00
9768;DHT22;4923;52.520;13.494;2023-02-26T07:40:57;1.10;1.00
9768;DHT22;4923;52.520;13.494;2023-02-26T07:43:44;1.10;1.00
9768;DHT22;4923;52.520;13.494;2023-02-26T07:46:31;1.30;1.00
9768;DHT22;4923;52.520;13.494;2023-02-26T07:49:18;1.30;1.00
9768;DHT22;4923;52.520;13.494;2023-02-26T07:52:07;1.50;1.00
9768;DHT22;4923;52.520;13.494;2023-02-26T07:54:54;1.40;1.00
9768;DHT22;4923;52.520;13.494;2023-02-26T07:57:41;1.50;1.00
9768;DHT22;4923;52.520;13.494;2023-02-26T08:00:28;1.50;1.00
9768;DHT22;4923;52.520;13.494;2023-02-26T08:03:15;2.00;1.00
9768;DHT22;4923;52.520;13.494;2023-02-26T08:06:02;2.40;1.00
9768;DHT22;4923;52.520;13.494;2023-02-26T08:08:51;2.20;1.00
9768;DHT22;4923;52.520;13.494;2023-02-26T08:11:38;2.00;1.00
9768;DHT22;4923;52.520;13.494;2023-02-26T08:14:27;1.80;1.00
9768;DHT22;4923;52.520;13.494;2023-02-26T08:17:14;1.60;1.00
9768;DHT22;4923;52.520;13.494;2023-02-26T08:20:02;1.60;1.00
9768;DHT22;4923;52.520;13.494;2023-02-26T08:22:50;1.70;1.00
9768;DHT22;4923;52.520;13.494;2023-02-26T08:25:38;1.70;1.00
9768;DHT22;4923;52.520;13.494;2023-02-26T08:28:25;1.70;1.00
9768;DHT22;4923;52.520;13.494;2023-02-26T08:31:12;1.70;1.00
9768;DHT22;4923;52.520;13.494;2023-02-26T08:33:59;1.80;1.00
9768;DHT22;4923;52.520;13.494;2023-02-26T08:36:46;1.80;1.00
9768;DHT22;4923;52.520;13.494;2023-02-26T08:39:35;1.90;1.00
9768;DHT22;4923;52.520;13.494;2023-02-26T08:42:24;2.00;1.00
9768;DHT22;4923;52.520;13.494;2023-02-26T08:45:11;2.00;1.00
9768;DHT22;4923;52.520;13.494;2023-02-26T08:47:58;2.00;1.00
9768;DHT22;4923;52.520;13.494;2023-02-26T08:50:45;1.90;1.00
9768;DHT22;4923;52.520;13.494;2023-02-26T08:53:32;2.00;1.00
9768;DHT22;4923;52.520;13.494;2023-02-26T08:56:20;2.00;1.00
9768;DHT22;4923;52.520;13.494;2023-02-26T08:59:08;2.00;1.00
9768;DHT22;4923;52.520;13.494;2023-02-26T09:01:57;2.10;1.00
9768;DHT22;4923;52.520;13.494;2023-02-26T09:04:44;2.20;1.00
9768;DHT22;4923;52.520;13.494;2023-02-26T09:07:31;2.20;1.00
9768;DHT22;4923;52.520;13.494;2023-02-26T09:10:18;2.40;1.00
9768;DHT22;4923;52.520;13.494;2023-02-26T09:13:05;2.30;1.00
9768;DHT22;4923;52.520;13.494;2023-02-26T09:15:53;2.40;1.00
9768;DHT22;4923;52.520;13.494;2023-02-26T09:18:40;2.30;1.00
9768;DHT22;4923;52.520;13.494;2023-02-26T09:21:27;2.40;1.00
9768;DHT22;4923;52.520;13.494;2023-02-26T09:24:14;2.50;1.00
9768;DHT22;4923;52.520;13.494;2023-02-26T09:27:01;2.60;1.00
9768;DHT22;4923;52.520;13.494;2023-02-26T09:29:48;2.50;1.00
9768;DHT22;4923;52.520;13.494;2023-02-26T09:32:36;2.50;1.00
9768;DHT22;4923;52.520;13.494;2023-02-26T09:35:23;2.80;1.00
9768;DHT22;4923;52.520;13.494;2023-02-26T09:38:10;3.10;1.00
9768;DHT22;4923;52.520;13.494;2023-02-26T09:41:00;3.20;1.00
9768;DHT22;4923;52.520;13.494;2023-02-26T09:44:07;3.40;1.00
9768;DHT22;4923;52.520;13.494;2023-02-26T09:47:00;3.50;1.00
9768;DHT22;4923;52.520;13.494;2023-02-26T09:49:53;3.30;1.00
9768;DHT22;4923;52.520;13.494;2023-02-26T09:52:45;3.30;1.00
9768;DHT22;4923;52.520;13.494;2023-02-26T09:55:37;3.40;1.00
9768;DHT22;4923;52.520;13.494;2023-02-26T09:58:30;2.80;1.00
9768;DHT22;4923;52.520;13.494;2023-02-26T10:01:22;2.60;1.00
9768;DHT22;4923;52.520;13.494;2023-02-26T10:04:18;2.50;1.00
9768;DHT22;4923;52.520;13.494;2023-02-26T10:07:15;2.50;1.00
9768;DHT22;4923;52.520;13.494;2023-02-26T10:10:16;2.40;1.00
9768;DHT22;4923;52.520;13.494;2023-02-26T10:13:05;2.70;1.00
9768;DHT22;4923;52.520;13.494;2023-02-26T10:16:03;2.80;1.00
9768;DHT22;4923;52.520;13.494;2023-02-26T10:18:54;3.00;1.00
9768;DHT22;4923;52.520;13.494;2023-02-26T10:21:46;3.00;1.00
9768;DHT22;4923;52.520;13.494;2023-02-26T10:24:39;3.20;1.00
9768;DHT22;4923;52.520;13.494;2023-02-26T10:27:41;3.20;1.00
9768;DHT22;4923;52.520;13.494;2023-02-26T10:30:34;3.50;1.00
9768;DHT22;4923;52.520;13.494;2023-02-26T10:33:29;3.50;1.00
9768;DHT22;4923;52.520;13.494;2023-02-26T10:36:23;3.60;1.00
9768;DHT22;4923;52.520;13.494;2023-02-26T10:39:21;3.30;1.00
9768;DHT22;4923;52.520;13.494;2023-02-26T10:42:14;3.50;1.00
9768;DHT22;4923;52.520;13.494;2023-02-26T10:45:10;3.60;1.00
9768;DHT22;4923;52.520;13.494;2023-02-26T10:48:18;3.70;1.00
9768;DHT22;4923;52.520;13.494;2023-02-26T10:51:11;3.60;1.00
9768;DHT22;4923;52.520;13.494;2023-02-26T10:54:02;3.80;1.00
9768;DHT22;4923;52.520;13.494;2023-02-26T10:56:50;4.10;1.00
9768;DHT22;4923;52.520;13.494;2023-02-26T10:59:38;4.10;1.00
9768;DHT22;4923;52.520;13.494;2023-02-26T11:02:33;4.40;1.00
9768;DHT22;4923;52.520;13.494;2023-02-26T11:05:23;4.40;1.00
9768;DHT22;4923;52.520;13.494;2023-02-26T11:08:14;4.30;1.00
9768;DHT22;4923;52.520;13.494;2023-02-26T11:11:03;4.30;1.00
9768;DHT22;4923;52.520;13.494;2023-02-26T11:13:51;4.30;1.00
9768;DHT22;4923;52.520;13.494;2023-02-26T11:16:47;4.20;1.00
9768;DHT22;4923;52.520;13.494;2023-02-26T11:19:38;4.20;1.00
9768;DHT22;4923;52.520;13.494;2023-02-26T11:22:28;3.90;1.00
9768;DHT22;4923;52.520;13.494;2023-02-26T11:25:21;3.70;1.00
9768;DHT22;4923;52.520;13.494;2023-02-26T11:28:19;3.90;1.00
9768;DHT22;4923;52.520;13.494;2023-02-26T11:31:09;4.00;1.00
9768;DHT22;4923;52.520;13.494;2023-02-26T11:34:02;4.10;1.00
9768;DHT22;4923;52.520;13.494;2023-02-26T11:36:50;4.20;1.00
9768;DHT22;4923;52.520;13.494;2023-02-26T11:39:37;4.40;1.00
9768;DHT22;4923;52.520;13.494;2023-02-26T11:42:25;4.50;1.00
9768;DHT22;4923;52.520;13.494;2023-02-26T11:45:16;4.50;1.00
9768;DHT22;4923;52.520;13.494;2023-02-26T11:48:06;4.40;1.00
9768;DHT22;4923;52.520;13.494;2023-02-26T11:50:58;4.70;1.00
9768;DHT22;4923;52.520;13.494;2023-02-26T11:53:48;4.50;1.00
9768;DHT22;4923;52.520;13.494;2023-02-26T11:56:38;4.60;1.00
9768;DHT22;4923;52.520;13.494;2023-02-26T11:59:30;4.10;1.00
9768;DHT22;4923;52.520;13.494;2023-02-26T12:02:19;3.90;1.00
9768;DHT22;4923;52.520;13.494;2023-02-26T12:05:13;3.80;1.00
9768;DHT22;4923;52.520;13.494;2023-02-26T12:08:15;3.70;1.00
9768;DHT22;4923;52.520;13.494;2023-02-26T12:11:14;3.70;1.00
9768;DHT22;4923;52.520;13.494;2023-02-26T12:14:13;3.80;1.00
9768;DHT22;4923;52.520;13.494;2023-02-26T12:17:11;3.70;1.00
9768;DHT22;4923;52.520;13.494;2023-02-26T12:20:10;3.50;1.00
9768;DHT22;4923;52.520;13.494;2023-02-26T12:23:19;3.60;1.00
9768;DHT22;4923;52.520;13.494;2023-02-26T12:26:23;4.00;1.00
9768;DHT22;4923;52.520;13.494;2023-02-26T12:29:26;4.50;1.00
9768;DHT22;4923;52.520;13.494;2023-02-26T12:32:38;4.50;1.00
9768;DHT22;4923;52.520;13.494;2023-02-26T12:35:38;4.40;1.00
9768;DHT22;4923;52.520;13.494;2023-02-26T12:38:34;4.60;1.00
9768;DHT22;4923;52.520;13.494;2023-02-26T12:41:36;4.50;1.00
9768;DHT22;4923;52.520;13.494;2023-02-26T12:44:44;4.60;1.00
9768;DHT22;4923;52.520;13.494;2023-02-26T12:47:45;4.10;1.00
9768;DHT22;4923;52.520;13.494;2023-02-26T12:50:44;3.70;1.00
9768;DHT22;4923;52.520;13.494;2023-02-26T12:54:10;3.80;1.00
9768;DHT22;4923;52.520;13.494;2023-02-26T12:57:28;3.80;1.00
9768;DHT22;4923;52.520;13.494;2023-02-26T13:00:30;4.00;1.00
9768;DHT22;4923;52.520;13.494;2023-02-26T13:06:57;4.30;1.00
9768;DHT22;4923;52.520;13.494;2023-02-26T13:09:54;4.50;1.00
9768;DHT22;4923;52.520;13.494;2023-02-26T13:12:50;4.60;1.00
9768;DHT22;4923;52.520;13.494;2023-02-26T13:15:52;4.90;1.00
9768;DHT22;4923;52.520;13.494;2023-02-26T13:18:48;4.70;1.00
9768;DHT22;4923;52.520;13.494;2023-02-26T13:21:40;4.40;1.00
9768;DHT22;4923;52.520;13.494;2023-02-26T13:24:33;4.50;1.00
9768;DHT22;4923;52.520;13.494;2023-02-26T13:27:25;4.30;1.00
9768;DHT22;4923;52.520;13.494;2023-02-26T13:30:20;4.00;1.00
9768;DHT22;4923;52.520;13.494;2023-02-26T13:33:15;4.00;1.00
9768;DHT22;4923;52.520;13.494;2023-02-26T13:36:04;3.80;1.00
9768;DHT22;4923;52.520;13.494;2023-02-26T13:39:02;3.80;1.00
9768;DHT22;4923;52.520;13.494;2023-02-26T13:41:56;3.90;1.00
9768;DHT22;4923;52.520;13.494;2023-02-26T13:44:53;4.10;1.00
9768;DHT22;4923;52.520;13.494;2023-02-26T13:47:55;4.70;1.00
9768;DHT22;4923;52.520;13.494;2023-02-26T13:50:52;4.50;1.00
9768;DHT22;4923;52.520;13.494;2023-02-26T13:53:50;4.40;1.00
9768;DHT22;4923;52.520;13.494;2023-02-26T13:56:58;3.80;1.00
9768;DHT22;4923;52.520;13.494;2023-02-26T13:59:58;3.70;1.00
9768;DHT22;4923;52.520;13.494;2023-02-26T14:02:50;3.90;1.00
9768;DHT22;4923;52.520;13.494;2023-02-26T14:09:14;4.40;1.00
9768;DHT22;4923;52.520;13.494;2023-02-26T14:12:23;4.50;1.00
9768;DHT22;4923;52.520;13.494;2023-02-26T14:15:26;4.40;1.00
9768;DHT22;4923;52.520;13.494;2023-02-26T14:18:29;4.10;1.00
9768;DHT22;4923;52.520;13.494;2023-02-26T14:21:46;4.00;1.00
9768;DHT22;4923;52.520;13.494;2023-02-26T14:24:35;3.90;1.00
9768;DHT22;4923;52.520;13.494;2023-02-26T14:27:32;3.90;1.00
9768;DHT22;4923;52.520;13.494;2023-02-26T14:30:28;3.90;1.00
9768;DHT22;4923;52.520;13.494;2023-02-26T14:33:17;3.60;1.00
9768;DHT22;4923;52.520;13.494;2023-02-26T14:36:13;3.50;1.00
9768;DHT22;4923;52.520;13.494;2023-02-26T14:39:03;3.50;1.00
9768;DHT22;4923;52.520;13.494;2023-02-26T14:41:56;3.50;1.00
9768;DHT22;4923;52.520;13.494;2023-02-26T14:44:47;3.60;1.00
9768;DHT22;4923;52.520;13.494;2023-02-26T14:47:36;3.80;1.00
9768;DHT22;4923;52.520;13.494;2023-02-26T14:50:23;3.90;1.00
9768;DHT22;4923;52.520;13.494;2023-02-26T14:53:35;3.80;1.00
9768;DHT22;4923;52.520;13.494;2023-02-26T14:56:34;3.70;1.00
9768;DHT22;4923;52.520;13.494;2023-02-26T14:59:45;3.80;1.00
9768;DHT22;4923;52.520;13.494;2023-02-26T15:02:46;3.70;1.00
9768;DHT22;4923;52.520;13.494;2023-02-26T15:05:44;3.60;1.00
9768;DHT22;4923;52.520;13.494;2023-02-26T15:08:44;3.40;1.00
9768;DHT22;4923;52.520;13.494;2023-02-26T15:12:01;3.40;1.00
9768;DHT22;4923;52.520;13.494;2023-02-26T15:18:16;3.70;1.00
9768;DHT22;4923;52.520;13.494;2023-02-26T15:21:11;3.90;1.00
9768;DHT22;4923;52.520;13.494;2023-02-26T15:24:02;3.90;1.00
9768;DHT22;4923;52.520;13.494;2023-02-26T15:26:51;4.00;1.00
9768;DHT22;4923;52.520;13.494;2023-02-26T15:29:40;3.90;1.00
9768;DHT22;4923;52.520;13.494;2023-02-26T15:32:28;3.80;1.00
9768;DHT22;4923;52.520;13.494;2023-02-26T15:35:19;3.70;1.00
9768;DHT22;4923;52.520;13.494;2023-02-26T15:38:08;3.60;1.00
9768;DHT22;4923;52.520;13.494;2023-02-26T15:40:59;3.50;1.00
9768;DHT22;4923;52.520;13.494;2023-02-26T15:43:49;3.40;1.00
9768;DHT22;4923;52.520;13.494;2023-02-26T15:46:39;3.20;1.00
9768;DHT22;4923;52.520;13.494;2023-02-26T15:49:29;3.20;1.00
9768;DHT22;4923;52.520;13.494;2023-02-26T15:52:22;3.00;1.00
9768;DHT22;4923;52.520;13.494;2023-02-26T15:55:14;3.00;1.00
9768;DHT22;4923;52.520;13.494;2023-02-26T15:58:03;2.90;1.00
9768;DHT22;4923;52.520;13.494;2023-02-26T16:00:55;2.90;1.00
9768;DHT22;4923;52.520;13.494;2023-02-26T16:03:46;2.90;1.00
9768;DHT22;4923;52.520;13.494;2023-02-26T16:06:35;2.80;1.00
9768;DHT22;4923;52.520;13.494;2023-02-26T16:09:28;2.70;1.00
9768;DHT22;4923;52.520;13.494;2023-02-26T16:12:17;2.70;1.00
9768;DHT22;4923;52.520;13.494;2023-02-26T16:15:11;2.70;1.00
9768;DHT22;4923;52.520;13.494;2023-02-26T16:17:59;2.60;1.00
9768;DHT22;4923;52.520;13.494;2023-02-26T16:20:49;2.60;1.00
9768;DHT22;4923;52.520;13.494;2023-02-26T16:23:42;2.50;1.00
9768;DHT22;4923;52.520;13.494;2023-02-26T16:26:33;2.50;1.00
9768;DHT22;4923;52.520;13.494;2023-02-26T16:29:24;2.40;1.00
9768;DHT22;4923;52.520;13.494;2023-02-26T16:32:12;2.40;1.00
9768;DHT22;4923;52.520;13.494;2023-02-26T16:35:09;2.30;1.00
9768;DHT22;4923;52.520;13.494;2023-02-26T16:37:56;2.30;1.00
9768;DHT22;4923;52.520;13.494;2023-02-26T16:40:44;2.30;1.00
9768;DHT22;4923;52.520;13.494;2023-02-26T16:43:50;2.20;1.00
9768;DHT22;4923;52.520;13.494;2023-02-26T16:46:40;2.20;1.00
9768;DHT22;4923;52.520;13.494;2023-02-26T16:49:30;2.20;1.00
9768;DHT22;4923;52.520;13.494;2023-02-26T16:52:20;2.20;1.00
9768;DHT22;4923;52.520;13.494;2023-02-26T16:55:10;2.10;1.00
9768;DHT22;4923;52.520;13.494;2023-02-26T16:58:05;2.00;1.00
9768;DHT22;4923;52.520;13.494;2023-02-26T17:00:58;2.00;1.00
9768;DHT22;4923;52.520;13.494;2023-02-26T17:03:49;2.00;1.00
9768;DHT22;4923;52.520;13.494;2023-02-26T17:06:41;1.90;1.00
9768;DHT22;4923;52.520;13.494;2023-02-26T17:09:34;1.80;1.00
9768;DHT22;4923;52.520;13.494;2023-02-26T17:12:28;1.70;1.00
9768;DHT22;4923;52.520;13.494;2023-02-26T17:15:18;1.70;1.00
9768;DHT22;4923;52.520;13.494;2023-02-26T17:18:07;1.70;1.00
9768;DHT22;4923;52.520;13.494;2023-02-26T17:20:54;1.70;1.00
9768;DHT22;4923;52.520;13.494;2023-02-26T17:23:41;1.80;1.00
9768;DHT22;4923;52.520;13.494;2023-02-26T17:26:28;1.90;1.00
9768;DHT22;4923;52.520;13.494;2023-02-26T17:29:19;1.90;1.00
9768;DHT22;4923;52.520;13.494;2023-02-26T17:32:13;2.00;1.00
9768;DHT22;4923;52.520;13.494;2023-02-26T17:35:04;2.00;1.00
9768;DHT22;4923;52.520;13.494;2023-02-26T17:37:53;2.10;1.00
9768;DHT22;4923;52.520;13.494;2023-02-26T17:40:40;2.10;1.00
9768;DHT22;4923;52.520;13.494;2023-02-26T17:43:28;2.10;1.00
9768;DHT22;4923;52.520;13.494;2023-02-26T17:46:15;2.10;1.00
9768;DHT22;4923;52.520;13.494;2023-02-26T17:49:02;2.00;1.00
9768;DHT22;4923;52.520;13.494;2023-02-26T17:51:50;1.90;1.00
9768;DHT22;4923;52.520;13.494;2023-02-26T17:54:38;1.80;1.00
9768;DHT22;4923;52.520;13.494;2023-02-26T17:57:26;1.70;1.00
9768;DHT22;4923;52.520;13.494;2023-02-26T18:00:14;1.60;1.00
9768;DHT22;4923;52.520;13.494;2023-02-26T18:03:02;1.50;1.00
9768;DHT22;4923;52.520;13.494;2023-02-26T18:05:52;1.50;1.00
9768;DHT22;4923;52.520;13.494;2023-02-26T18:08:41;1.40;1.00
9768;DHT22;4923;52.520;13.494;2023-02-26T18:11:29;1.40;1.00
9768;DHT22;4923;52.520;13.494;2023-02-26T18:14:17;1.40;1.00
9768;DHT22;4923;52.520;13.494;2023-02-26T18:17:03;1.40;1.00
9768;DHT22;4923;52.520;13.494;2023-02-26T18:19:52;1.30;1.00
9768;DHT22;4923;52.520;13.494;2023-02-26T18:22:39;1.30;1.00
9768;DHT22;4923;52.520;13.494;2023-02-26T18:25:27;1.20;1.00
9768;DHT22;4923;52.520;13.494;2023-02-26T18:28:17;1.10;1.00
9768;DHT22;4923;52.520;13.494;2023-02-26T18:31:05;1.10;1.00
9768;DHT22;4923;52.520;13.494;2023-02-26T18:33:53;1.10;1.00
9768;DHT22;4923;52.520;13.494;2023-02-26T18:36:40;1.00;1.00
9768;DHT22;4923;52.520;13.494;2023-02-26T18:39:27;1.00;1.00
9768;DHT22;4923;52.520;13.494;2023-02-26T18:42:21;0.90;1.00
9768;DHT22;4923;52.520;13.494;2023-02-26T18:45:10;0.90;1.00
9768;DHT22;4923;52.520;13.494;2023-02-26T18:47:57;0.90;1.00
9768;DHT22;4923;52.520;13.494;2023-02-26T18:50:44;0.80;1.00
9768;DHT22;4923;52.520;13.494;2023-02-26T18:53:32;0.70;1.00
9768;DHT22;4923;52.520;13.494;2023-02-26T18:56:19;0.70;1.00
9768;DHT22;4923;52.520;13.494;2023-02-26T18:59:08;0.60;1.00
9768;DHT22;4923;52.520;13.494;2023-02-26T19:01:55;0.60;1.00
9768;DHT22;4923;52.520;13.494;2023-02-26T19:04:42;0.50;1.00
9768;DHT22;4923;52.520;13.494;2023-02-26T19:07:28;0.50;1.00
9768;DHT22;4923;52.520;13.494;2023-02-26T19:10:16;0.40;1.00